KJXN/JXN METAR and TAF weather

Enter ICAO airport designator
Station Type Date Time Source
KJXN METAR 2024/07/23 16:56 UTC NOAA

KJXN 231656Z 24006KT 10SM SCT040 26/17 A3005 RMK AO2 SLP171 T02610172


Station Type Date Time Source
KJXN Decoded METAR 2024/07/23 16:56 UTC NOAA

JACKSON COUNTY-REYNOLDS, MI, United States (KJXN) 42-16N 084-28W
Jul 23, 2024 - 12:56 PM EDT / 2024.07.23 1656 UTC
Wind: from the WSW (240 degrees) at 7 MPH (6 KT):0
Visibility: 10 mile(s):0
Sky conditions: partly cloudy
Temperature: 79.0 F (26.1 C)
Dew Point: 63.0 F (17.2 C)
Relative Humidity: 58%
Pressure (altimeter): 30.05 in. Hg (1017 hPa)
ob: KJXN 231656Z 24006KT 10SM SCT040 26/17 A3005 RMK AO2 SLP171 T02610172
cycle: 17

Station Type Date Time Source
KJXN TAF 2024/07/23 12:22 UTC NOAA